createdAt,value
2022-10-14T00:00:41.031Z,14.08
2022-10-14T00:03:44.053Z,14.21
2022-10-14T00:06:47.878Z,14.30
2022-10-14T00:09:50.474Z,14.45
2022-10-14T00:12:52.950Z,14.40
2022-10-14T00:15:55.429Z,14.15
2022-10-14T00:18:58.540Z,14.19
2022-10-14T00:22:02.393Z,14.22
2022-10-14T00:25:05.555Z,14.03
2022-10-14T00:28:08.057Z,13.84
2022-10-14T00:31:10.570Z,13.78
2022-10-14T00:34:15.760Z,13.90
2022-10-14T00:37:20.023Z,13.97
2022-10-14T00:40:22.688Z,14.05
2022-10-14T00:43:27.637Z,14.16
2022-10-14T00:46:32.223Z,14.27
2022-10-14T00:49:38.003Z,14.26
2022-10-14T00:52:42.082Z,14.06
2022-10-14T00:55:44.732Z,14.08
2022-10-14T00:58:47.603Z,13.92
2022-10-14T01:01:50.211Z,14.21
2022-10-14T01:04:52.896Z,14.11
2022-10-14T01:08:03.890Z,14.24
2022-10-14T01:11:11.675Z,13.74
2022-10-14T01:14:24.230Z,13.79
2022-10-14T01:17:36.517Z,14.20
2022-10-14T01:21:08.783Z,14.31
2022-10-14T01:24:41.303Z,14.42
2022-10-14T01:27:56.281Z,14.43
2022-10-14T01:31:03.733Z,14.34
2022-10-14T01:34:10.253Z,14.28
2022-10-14T01:37:17.911Z,14.16
2022-10-14T01:40:27.681Z,14.08
2022-10-14T01:43:32.945Z,14.25
2022-10-14T01:46:39.526Z,14.30
2022-10-14T01:49:46.425Z,14.51
2022-10-14T01:52:53.308Z,14.59
2022-10-14T01:55:57.195Z,14.38
2022-10-14T01:59:01.806Z,14.51
2022-10-14T02:02:05.766Z,14.23
2022-10-14T02:05:15.814Z,14.35
2022-10-14T02:08:27.182Z,14.50
2022-10-14T02:11:35.315Z,14.10
2022-10-14T02:14:44.934Z,14.13
2022-10-14T02:17:56.179Z,14.42
2022-10-14T02:21:06.720Z,14.24
2022-10-14T02:24:14.854Z,14.40
2022-10-14T02:27:21.219Z,14.53
2022-10-14T02:30:23.985Z,14.53
2022-10-14T02:33:33.230Z,14.52
2022-10-14T02:36:36.943Z,14.60
2022-10-14T02:39:47.061Z,14.41
2022-10-14T02:42:49.779Z,14.34
2022-10-14T02:45:58.170Z,14.42
2022-10-14T02:49:02.500Z,14.45
2022-10-14T02:52:05.327Z,14.43
2022-10-14T02:55:08.592Z,14.46
2022-10-14T02:58:11.226Z,14.54
2022-10-14T03:01:13.855Z,14.14
2022-10-14T03:04:17.844Z,14.36
2022-10-14T03:07:20.524Z,14.28
2022-10-14T03:10:23.119Z,14.23
2022-10-14T03:13:25.828Z,14.25
2022-10-14T03:16:28.440Z,14.39
2022-10-14T03:19:32.278Z,14.29
2022-10-14T03:22:34.890Z,14.49
2022-10-14T03:25:38.357Z,14.53
2022-10-14T03:28:40.932Z,14.18
2022-10-14T03:31:43.593Z,14.46
2022-10-14T03:34:47.439Z,14.54
2022-10-14T03:37:49.922Z,14.54
2022-10-14T03:40:52.403Z,14.21
2022-10-14T03:43:54.897Z,13.96
2022-10-14T03:46:57.974Z,14.23
2022-10-14T03:50:02.901Z,14.41
2022-10-14T03:53:05.544Z,14.24
2022-10-14T03:56:08.676Z,14.20
2022-10-14T03:59:11.194Z,14.21
2022-10-14T04:02:13.770Z,13.78
2022-10-14T04:05:17.713Z,13.88
2022-10-14T04:08:20.258Z,14.11
2022-10-14T04:11:22.722Z,14.43
2022-10-14T04:14:26.487Z,14.27
2022-10-14T04:17:28.961Z,14.49
2022-10-14T04:20:32.781Z,14.63
2022-10-14T04:23:36.127Z,14.31
2022-10-14T04:26:38.604Z,14.51
2022-10-14T04:29:41.422Z,14.63
2022-10-14T04:32:43.928Z,14.62
2022-10-14T04:35:47.747Z,14.64
2022-10-14T04:38:50.229Z,14.24
2022-10-14T04:41:52.743Z,14.53
2022-10-14T04:44:55.234Z,14.59
2022-10-14T04:47:57.713Z,14.22
2022-10-14T04:51:01.530Z,14.47
2022-10-14T04:54:04.254Z,14.57
2022-10-14T04:57:06.741Z,14.60
2022-10-14T05:00:10.822Z,14.66
2022-10-14T05:03:13.278Z,14.65
2022-10-14T05:06:17.103Z,14.71
2022-10-14T05:09:19.652Z,14.72
2022-10-14T05:12:22.380Z,14.42
2022-10-14T05:15:25.170Z,14.55
2022-10-14T05:18:27.725Z,14.60
2022-10-14T05:21:31.570Z,14.64
2022-10-14T05:24:34.069Z,14.45
2022-10-14T05:27:36.744Z,14.52
2022-10-14T05:30:39.247Z,14.35
2022-10-14T05:33:41.720Z,14.29
2022-10-14T05:36:45.588Z,14.49
2022-10-14T05:39:48.116Z,14.41
2022-10-14T05:42:50.814Z,14.60
2022-10-14T05:45:53.389Z,14.35
2022-10-14T05:48:57.501Z,14.34
2022-10-14T05:52:01.353Z,14.34
2022-10-14T05:55:04.137Z,14.29
2022-10-14T05:58:06.623Z,14.25
2022-10-14T06:01:11.099Z,14.37
2022-10-14T06:04:18.582Z,14.52
2022-10-14T06:07:22.461Z,14.44
2022-10-14T06:10:24.946Z,14.13
2022-10-14T06:13:27.483Z,14.38
2022-10-14T06:16:29.978Z,14.25
2022-10-14T06:19:32.485Z,14.01
2022-10-14T06:22:36.332Z,14.17
2022-10-14T06:25:38.964Z,14.30
2022-10-14T06:28:41.578Z,14.32
2022-10-14T06:31:44.152Z,14.46
2022-10-14T06:34:46.632Z,14.45
2022-10-14T06:37:50.579Z,14.27
2022-10-14T06:40:53.259Z,14.32
2022-10-14T06:43:55.771Z,14.45
2022-10-14T06:46:58.271Z,14.55
2022-10-14T06:50:00.765Z,14.31
2022-10-14T06:53:04.609Z,14.55
2022-10-14T06:56:09.294Z,14.48
2022-10-14T06:59:11.771Z,14.43
2022-10-14T07:02:14.275Z,14.61
2022-10-14T07:05:17.219Z,14.44
2022-10-14T07:08:21.013Z,14.39
2022-10-14T07:11:23.547Z,14.28
2022-10-14T07:14:27.965Z,14.38
2022-10-14T07:17:30.471Z,14.47
2022-10-14T07:20:33.944Z,14.42
2022-10-14T07:23:37.752Z,14.34
2022-10-14T07:26:40.566Z,14.60
2022-10-14T07:29:43.198Z,14.48
2022-10-14T07:32:45.793Z,14.56
2022-10-14T07:35:48.295Z,14.75
2022-10-14T07:38:52.150Z,14.54
2022-10-14T07:41:54.657Z,14.31
2022-10-14T07:44:58.034Z,14.34
2022-10-14T07:48:00.536Z,14.31
2022-10-14T07:51:03.125Z,14.30
2022-10-14T07:54:09.650Z,14.07
2022-10-14T07:57:12.414Z,14.36
2022-10-14T08:00:15.184Z,14.65
2022-10-14T08:03:18.366Z,14.44
2022-10-14T08:06:21.066Z,14.64
2022-10-14T08:09:24.913Z,14.68
2022-10-14T08:12:27.486Z,14.89
2022-10-14T08:15:33.547Z,14.79
2022-10-14T08:18:36.016Z,14.72
2022-10-14T08:21:38.541Z,14.77
2022-10-14T08:24:42.422Z,14.90
2022-10-14T08:27:44.871Z,14.79
2022-10-14T08:30:48.134Z,14.63
2022-10-14T08:33:50.605Z,14.41
2022-10-14T08:36:53.155Z,14.60
2022-10-14T08:39:56.952Z,14.64
2022-10-14T08:43:05.306Z,14.43
2022-10-14T08:46:15.207Z,14.86
2022-10-14T08:49:24.900Z,14.86
2022-10-14T08:52:34.987Z,15.05
2022-10-14T08:55:44.474Z,14.81
2022-10-14T08:58:49.863Z,15.00
2022-10-14T09:01:54.701Z,15.02
2022-10-14T09:04:58.103Z,15.00
2022-10-14T09:08:02.678Z,15.04
2022-10-14T09:11:07.641Z,15.28
2022-10-14T09:14:17.978Z,15.33
2022-10-14T09:17:26.481Z,15.20
2022-10-14T09:20:29.002Z,15.07
2022-10-14T09:23:31.506Z,15.28
2022-10-14T09:26:41.081Z,14.99
2022-10-14T09:29:47.245Z,14.88
2022-10-14T09:32:52.453Z,14.68
2022-10-14T09:35:55.132Z,15.03
2022-10-14T09:39:02.396Z,15.73
2022-10-14T09:42:18.429Z,16.59
2022-10-14T09:45:23.578Z,16.93
2022-10-14T09:48:33.426Z,17.11
2022-10-14T09:51:36.102Z,16.83
2022-10-14T09:54:38.800Z,16.75
2022-10-14T09:57:42.720Z,17.04
2022-10-14T10:00:46.767Z,16.95
2022-10-14T10:03:51.037Z,16.76
2022-10-14T10:06:55.338Z,16.50
2022-10-14T10:09:59.554Z,16.72
2022-10-14T10:13:03.893Z,18.33
2022-10-14T10:16:08.834Z,19.13
2022-10-14T10:19:27.367Z,18.93
2022-10-14T10:22:33.982Z,20.56
2022-10-14T10:25:36.480Z,20.10
2022-10-14T10:28:46.528Z,20.29
2022-10-14T10:32:12.030Z,21.16
2022-10-14T10:35:23.744Z,19.71
2022-10-14T10:38:31.679Z,19.04
2022-10-14T10:41:50.648Z,18.51
2022-10-14T10:45:04.580Z,18.16
2022-10-14T10:48:16.283Z,17.76
2022-10-14T10:51:27.524Z,18.54
2022-10-14T10:54:41.267Z,18.60
2022-10-14T10:57:56.358Z,18.32
2022-10-14T11:01:06.033Z,18.29
2022-10-14T11:04:22.336Z,19.31
2022-10-14T11:07:50.692Z,18.48
2022-10-14T11:11:30.978Z,18.07
2022-10-14T11:14:49.677Z,17.24
2022-10-14T11:17:59.541Z,17.17
2022-10-14T11:21:10.849Z,17.12
2022-10-14T11:24:24.944Z,17.36
2022-10-14T11:27:37.303Z,17.13
2022-10-14T11:30:49.306Z,17.29
2022-10-14T11:34:09.514Z,17.22
2022-10-14T11:37:24.632Z,17.01
2022-10-14T11:40:29.212Z,17.03
2022-10-14T11:43:40.445Z,16.63
2022-10-14T11:46:47.909Z,16.76
2022-10-14T11:49:57.835Z,17.08
2022-10-14T11:53:05.229Z,16.98
2022-10-14T11:56:18.337Z,17.12
2022-10-14T11:59:40.068Z,16.61
2022-10-14T12:02:50.516Z,16.93
2022-10-14T12:06:01.941Z,16.90
2022-10-14T12:09:13.568Z,17.07
2022-10-14T12:12:20.825Z,17.13
2022-10-14T12:15:26.836Z,17.19
2022-10-14T12:18:30.774Z,17.11
2022-10-14T12:21:49.694Z,16.91
2022-10-14T12:24:55.120Z,17.62
2022-10-14T12:27:57.760Z,18.81
2022-10-14T12:31:22.351Z,19.48
2022-10-14T12:34:34.751Z,20.30
2022-10-14T12:37:51.975Z,21.20
2022-10-14T12:40:54.881Z,20.37
2022-10-14T12:44:02.302Z,20.05
2022-10-14T12:47:05.878Z,20.92
2022-10-14T12:50:29.169Z,20.84
2022-10-14T12:53:35.186Z,20.19
2022-10-14T12:56:41.278Z,20.03
2022-10-14T12:59:50.929Z,21.25
2022-10-14T13:02:56.474Z,22.66
2022-10-14T13:06:29.605Z,23.71
2022-10-14T13:09:36.378Z,23.41
2022-10-14T13:12:43.830Z,24.03
2022-10-14T13:15:51.097Z,23.86
2022-10-14T13:18:54.486Z,24.72
2022-10-14T13:21:56.978Z,23.83
2022-10-14T13:25:07.945Z,22.31
2022-10-14T13:28:25.189Z,21.25
2022-10-14T13:31:35.790Z,20.41
2022-10-14T13:34:50.642Z,19.43
2022-10-14T13:37:59.789Z,19.40
2022-10-14T13:41:04.579Z,19.10
2022-10-14T13:44:07.144Z,18.63
2022-10-14T13:47:14.133Z,18.55
2022-10-14T13:50:20.044Z,18.34
2022-10-14T13:53:23.770Z,18.30
2022-10-14T13:56:29.361Z,18.18
2022-10-14T13:59:44.400Z,18.15
2022-10-14T14:02:55.168Z,17.93
2022-10-14T14:06:00.846Z,17.91
2022-10-14T14:09:06.129Z,17.84
2022-10-14T14:12:14.227Z,17.62
2022-10-14T14:15:22.660Z,17.83
2022-10-14T14:18:43.445Z,17.88
2022-10-14T14:22:08.631Z,17.75
2022-10-14T14:25:33.384Z,17.81
2022-10-14T14:28:37.536Z,17.79
2022-10-14T14:35:05.988Z,17.80
2022-10-14T14:38:26.851Z,17.79
2022-10-14T14:41:31.256Z,17.72
2022-10-14T14:44:35.605Z,17.71
2022-10-14T14:47:38.201Z,17.62
2022-10-14T14:50:43.920Z,17.53
2022-10-14T14:53:51.104Z,17.37
2022-10-14T14:56:57.497Z,17.26
2022-10-14T15:00:03.633Z,17.27
2022-10-14T15:03:06.249Z,17.20
2022-10-14T15:06:16.274Z,17.27
2022-10-14T15:09:23.921Z,17.19
2022-10-14T15:12:30.616Z,17.28
2022-10-14T15:15:35.168Z,17.32
2022-10-14T15:18:40.900Z,17.19
2022-10-14T15:21:47.272Z,17.22
2022-10-14T15:25:05.093Z,17.10
2022-10-14T15:28:29.840Z,17.07
2022-10-14T15:31:34.129Z,17.02
2022-10-14T15:34:36.652Z,17.14
2022-10-14T15:37:39.161Z,16.97
2022-10-14T15:40:41.858Z,16.77
2022-10-14T15:43:44.350Z,16.89
2022-10-14T15:47:05.590Z,16.87
2022-10-14T15:50:14.038Z,16.74
2022-10-14T15:53:19.141Z,16.76
2022-10-14T15:56:21.624Z,16.66
2022-10-14T15:59:24.613Z,16.73
2022-10-14T16:02:33.707Z,16.72
2022-10-14T16:05:36.656Z,16.68
2022-10-14T16:08:39.393Z,16.69
2022-10-14T16:11:42.068Z,16.63
2022-10-14T16:14:44.912Z,16.65
2022-10-14T16:17:52.097Z,16.55
2022-10-14T16:20:55.669Z,16.43
2022-10-14T16:23:58.716Z,16.30
2022-10-14T16:27:01.346Z,16.33
2022-10-14T16:30:11.264Z,16.33
2022-10-14T16:33:15.457Z,16.36
2022-10-14T16:36:18.525Z,16.38
2022-10-14T16:39:21.316Z,16.33
2022-10-14T16:42:23.820Z,16.18
2022-10-14T16:45:26.290Z,16.22
2022-10-14T16:48:30.560Z,16.14
2022-10-14T16:51:33.040Z,16.11
2022-10-14T16:54:35.567Z,16.17
2022-10-14T16:57:38.042Z,16.17
2022-10-14T17:00:40.574Z,15.99
2022-10-14T17:03:44.398Z,16.02
2022-10-14T17:06:47.472Z,15.97
2022-10-14T17:09:49.938Z,16.00
2022-10-14T17:12:53.881Z,15.97
2022-10-14T17:16:00.323Z,15.97
2022-10-14T17:19:04.163Z,15.92
2022-10-14T17:22:06.650Z,15.86
2022-10-14T17:25:10.056Z,15.96
2022-10-14T17:28:13.084Z,15.98
2022-10-14T17:31:17.610Z,15.92
2022-10-14T17:34:22.926Z,15.96
2022-10-14T17:37:25.452Z,15.87
2022-10-14T17:40:27.937Z,15.90
2022-10-14T17:43:30.548Z,15.89
2022-10-14T17:46:33.895Z,15.90
2022-10-14T17:49:37.714Z,15.88
2022-10-14T17:52:40.167Z,15.82
2022-10-14T17:55:42.651Z,15.93
2022-10-14T17:58:45.140Z,16.00
2022-10-14T18:02:04.030Z,15.94
2022-10-14T18:05:09.047Z,16.03
2022-10-14T18:08:12.072Z,15.94
2022-10-14T18:11:14.563Z,15.98
2022-10-14T18:14:17.164Z,15.94
2022-10-14T18:17:19.749Z,15.94
2022-10-14T18:20:23.679Z,16.03
2022-10-14T18:23:26.310Z,16.16
2022-10-14T18:26:29.224Z,16.03
2022-10-14T18:29:31.852Z,15.69
2022-10-14T18:32:34.478Z,15.96
2022-10-14T18:35:38.296Z,16.08
2022-10-14T18:38:41.017Z,16.10
2022-10-14T18:41:43.935Z,15.99
2022-10-14T18:44:46.429Z,15.99
2022-10-14T18:47:48.909Z,15.92
2022-10-14T18:50:59.184Z,16.04
2022-10-14T18:54:05.149Z,16.09
2022-10-14T18:57:09.359Z,16.12
2022-10-14T19:00:14.329Z,16.12
2022-10-14T19:03:18.583Z,15.99
2022-10-14T19:06:23.666Z,15.93
2022-10-14T19:09:29.555Z,16.05
2022-10-14T19:12:44.452Z,16.04
2022-10-14T19:15:53.785Z,16.01
2022-10-14T19:18:57.917Z,16.07
2022-10-14T19:22:01.741Z,16.00
2022-10-14T19:25:04.761Z,15.81
2022-10-14T19:28:07.473Z,15.96
2022-10-14T19:31:12.245Z,15.85
2022-10-14T19:34:16.633Z,15.97
2022-10-14T19:37:20.723Z,15.75
2022-10-14T19:40:23.812Z,15.86
2022-10-14T19:43:26.569Z,15.75
2022-10-14T19:46:30.017Z,15.93
2022-10-14T19:49:32.507Z,15.91
2022-10-14T19:52:36.408Z,15.91
2022-10-14T19:55:39.034Z,15.86
2022-10-14T19:58:44.770Z,15.91
2022-10-14T20:01:47.926Z,15.87
2022-10-14T20:04:50.498Z,15.83
2022-10-14T20:07:54.524Z,15.83
2022-10-14T20:10:57.318Z,15.82
2022-10-14T20:14:00.007Z,15.79
2022-10-14T20:17:03.684Z,15.79
2022-10-14T20:20:07.519Z,15.79
2022-10-14T20:23:11.467Z,15.67
2022-10-14T20:26:17.425Z,15.60
2022-10-14T20:29:19.995Z,15.65
2022-10-14T20:32:22.497Z,15.58
2022-10-14T20:35:25.190Z,15.67
2022-10-14T20:38:29.552Z,15.69
2022-10-14T20:41:32.066Z,15.67
2022-10-14T20:44:34.657Z,15.69
2022-10-14T20:47:37.154Z,15.67
2022-10-14T20:50:39.633Z,15.61
2022-10-14T20:53:43.521Z,15.40
2022-10-14T20:56:46.043Z,15.68
2022-10-14T20:59:48.551Z,15.52
2022-10-14T21:02:51.081Z,15.66
2022-10-14T21:05:53.552Z,15.71
2022-10-14T21:08:58.796Z,15.71
2022-10-14T21:12:01.279Z,15.76
2022-10-14T21:15:04.145Z,15.70
2022-10-14T21:18:07.066Z,15.68
2022-10-14T21:21:11.635Z,15.75
2022-10-14T21:24:19.984Z,15.76
2022-10-14T21:27:22.787Z,15.78
2022-10-14T21:30:25.443Z,15.66
2022-10-14T21:33:27.910Z,15.55
2022-10-14T21:36:30.464Z,15.66
2022-10-14T21:39:34.277Z,15.67
2022-10-14T21:42:36.753Z,15.62
2022-10-14T21:45:39.246Z,15.70
2022-10-14T21:48:43.333Z,15.75
2022-10-14T21:51:45.838Z,15.82
2022-10-14T21:54:49.694Z,15.54
2022-10-14T21:57:52.392Z,15.59
2022-10-14T22:01:02.230Z,15.63
2022-10-14T22:04:06.761Z,15.47
2022-10-14T22:07:10.536Z,15.58
2022-10-14T22:10:28.649Z,15.60
2022-10-14T22:13:31.904Z,15.46
2022-10-14T22:16:34.542Z,15.72
2022-10-14T22:19:37.039Z,15.45
2022-10-14T22:22:39.505Z,15.56
2022-10-14T22:25:43.359Z,15.71
2022-10-14T22:28:46.259Z,15.52
2022-10-14T22:31:48.784Z,15.36
2022-10-14T22:34:51.261Z,15.53
2022-10-14T22:37:53.973Z,15.73
2022-10-14T22:41:01.319Z,15.64
2022-10-14T22:44:05.302Z,15.75
2022-10-14T22:47:07.794Z,15.75
2022-10-14T22:50:10.866Z,15.55
2022-10-14T22:53:13.554Z,15.81
2022-10-14T22:56:22.137Z,15.89
2022-10-14T22:59:24.928Z,15.88
2022-10-14T23:02:27.408Z,15.93
2022-10-14T23:05:30.799Z,16.00
2022-10-14T23:08:34.688Z,16.02
2022-10-14T23:11:38.514Z,15.88
2022-10-14T23:14:40.986Z,15.71
2022-10-14T23:17:43.483Z,15.88
2022-10-14T23:20:45.952Z,15.78
2022-10-14T23:23:49.703Z,15.64
2022-10-14T23:26:53.620Z,15.65
2022-10-14T23:29:56.174Z,15.62
2022-10-14T23:32:58.642Z,15.52
2022-10-14T23:36:03.713Z,15.54
2022-10-14T23:39:06.505Z,15.55
2022-10-14T23:42:10.307Z,15.78
2022-10-14T23:45:12.867Z,15.84
2022-10-14T23:48:15.348Z,15.71
2022-10-14T23:51:18.222Z,15.83
2022-10-14T23:54:20.729Z,15.91
2022-10-14T23:57:25.022Z,15.80
